createdAt,value
2019-03-24T00:01:49.416Z,54.40
2019-03-24T00:04:20.111Z,54.30
2019-03-24T00:06:50.915Z,54.30
2019-03-24T00:09:21.965Z,54.30
2019-03-24T00:11:52.834Z,54.20
2019-03-24T00:14:23.636Z,54.30
2019-03-24T00:16:54.458Z,54.50
2019-03-24T00:19:25.096Z,57.50
2019-03-24T00:21:55.981Z,57.40
2019-03-24T00:24:26.788Z,56.00
2019-03-24T00:26:57.591Z,59.90
2019-03-24T00:29:28.318Z,56.80
2019-03-24T00:31:59.197Z,56.40
2019-03-24T00:34:29.988Z,59.70
2019-03-24T00:37:00.866Z,62.60
2019-03-24T00:39:31.569Z,57.40
2019-03-24T00:42:02.418Z,56.40
2019-03-24T00:44:33.082Z,55.60
2019-03-24T00:47:03.871Z,56.80
2019-03-24T00:49:34.598Z,57.70
2019-03-24T00:52:05.358Z,62.10
2019-03-24T00:54:36.126Z,61.20
2019-03-24T00:57:06.814Z,56.80
2019-03-24T00:59:37.553Z,55.90
2019-03-24T01:02:08.334Z,55.90
2019-03-24T01:04:39.186Z,55.30
2019-03-24T01:07:09.874Z,55.40
2019-03-24T01:09:40.622Z,57.10
2019-03-24T01:12:11.370Z,56.10
2019-03-24T01:14:44.886Z,55.20
2019-03-24T01:17:15.707Z,57.70
2019-03-24T01:19:46.624Z,57.00
2019-03-24T01:22:17.442Z,61.80
2019-03-24T01:24:48.204Z,64.70
2019-03-24T01:27:18.930Z,59.20
2019-03-24T01:29:49.806Z,60.10
2019-03-24T01:32:20.664Z,60.40
2019-03-24T01:34:51.393Z,58.20
2019-03-24T01:37:22.092Z,57.50
2019-03-24T01:39:52.771Z,56.50
2019-03-24T01:42:23.610Z,56.90
2019-03-24T01:44:54.376Z,55.80
2019-03-24T01:47:25.230Z,57.70
2019-03-24T01:49:55.992Z,58.10
2019-03-24T01:52:26.683Z,57.50
2019-03-24T01:54:57.442Z,56.50
2019-03-24T01:57:28.280Z,57.20
2019-03-24T01:59:59.096Z,56.30
2019-03-24T02:02:29.808Z,56.30
2019-03-24T02:05:00.601Z,56.10
2019-03-24T02:07:31.262Z,58.10
2019-03-24T02:10:02.083Z,56.60
2019-03-24T02:12:33.018Z,55.70
2019-03-24T02:15:03.801Z,56.10
2019-03-24T02:17:34.658Z,55.50
2019-03-24T02:20:06.438Z,55.90
2019-03-24T02:22:37.135Z,55.20
2019-03-24T02:25:09.063Z,55.80
2019-03-24T02:27:39.901Z,55.90
2019-03-24T02:30:11.977Z,55.50
2019-03-24T02:32:42.867Z,57.00
2019-03-24T02:35:13.532Z,59.90
2019-03-24T02:37:44.318Z,60.20
2019-03-24T02:40:15.061Z,56.40
2019-03-24T02:42:46.124Z,63.40
2019-03-24T02:45:16.941Z,59.50
2019-03-24T02:47:47.758Z,57.70
2019-03-24T02:50:18.570Z,57.50
2019-03-24T02:52:49.339Z,58.20
2019-03-24T02:55:20.075Z,59.90
2019-03-24T02:57:50.738Z,59.60
2019-03-24T03:00:21.535Z,62.10
2019-03-24T03:02:52.315Z,63.80
2019-03-24T03:05:23.146Z,59.40
2019-03-24T03:07:53.837Z,58.40
2019-03-24T03:10:24.627Z,62.30
2019-03-24T03:12:55.440Z,62.80
2019-03-24T03:15:26.199Z,63.50
2019-03-24T03:17:57.058Z,61.60
2019-03-24T03:20:27.888Z,64.60
2019-03-24T03:22:58.514Z,66.00
2019-03-24T03:25:29.379Z,68.30
2019-03-24T03:28:00.095Z,65.30
2019-03-24T03:30:30.908Z,73.20
2019-03-24T03:33:01.773Z,65.60
2019-03-24T03:35:32.585Z,71.60
2019-03-24T03:38:03.407Z,61.60
2019-03-24T03:40:34.169Z,66.10
2019-03-24T03:43:04.924Z,59.60
2019-03-24T03:45:39.023Z,62.50
2019-03-24T03:48:08.187Z,65.40
2019-03-24T03:50:38.990Z,67.10
2019-03-24T03:53:09.849Z,61.70
2019-03-24T03:55:40.531Z,66.20
2019-03-24T03:58:11.292Z,71.60
2019-03-24T04:00:42.023Z,62.50
2019-03-24T04:03:12.778Z,65.10
2019-03-24T04:05:43.526Z,66.50
2019-03-24T04:08:14.279Z,64.60
2019-03-24T04:10:45.116Z,62.20
2019-03-24T04:13:15.914Z,64.10
2019-03-24T04:15:46.798Z,65.30
2019-03-24T04:18:17.606Z,61.70
2019-03-24T04:20:48.402Z,69.10
2019-03-24T04:23:19.251Z,66.30
2019-03-24T04:25:50.023Z,64.10
2019-03-24T04:28:20.749Z,68.20
2019-03-24T04:30:51.421Z,70.30
2019-03-24T04:33:22.127Z,66.80
2019-03-24T04:35:52.941Z,66.80
2019-03-24T04:38:23.633Z,62.40
2019-03-24T04:40:54.369Z,65.30
2019-03-24T04:43:25.156Z,61.40
2019-03-24T04:45:55.926Z,61.80
2019-03-24T04:48:26.700Z,62.00
2019-03-24T04:50:57.493Z,63.70
2019-03-24T04:53:28.156Z,61.30
2019-03-24T04:55:58.891Z,62.00
2019-03-24T04:58:29.759Z,64.70
2019-03-24T05:01:00.451Z,62.30
2019-03-24T05:03:31.146Z,60.90
2019-03-24T05:06:02.295Z,62.80
2019-03-24T05:08:33.310Z,63.90
2019-03-24T05:11:04.383Z,60.80
2019-03-24T05:13:35.191Z,64.50
2019-03-24T05:16:05.981Z,61.80
2019-03-24T05:18:36.710Z,62.00
2019-03-24T05:21:07.554Z,66.30
2019-03-24T05:23:38.232Z,63.10
2019-03-24T05:26:09.063Z,60.80
2019-03-24T05:28:39.856Z,60.30
2019-03-24T05:31:10.680Z,63.90
2019-03-24T05:33:41.481Z,64.80
2019-03-24T05:36:12.191Z,61.00
2019-03-24T05:38:42.888Z,62.30
2019-03-24T05:41:13.538Z,63.00
2019-03-24T05:43:44.334Z,64.50
2019-03-24T05:46:15.178Z,63.80
2019-03-24T05:48:45.990Z,63.30
2019-03-24T05:51:16.670Z,64.80
2019-03-24T05:53:47.475Z,63.50
2019-03-24T05:56:18.226Z,62.50
2019-03-24T05:58:48.919Z,62.10
2019-03-24T06:01:19.615Z,61.70
2019-03-24T06:03:50.356Z,65.90
2019-03-24T06:06:21.048Z,66.40
2019-03-24T06:08:51.823Z,63.40
2019-03-24T06:11:22.662Z,62.20
2019-03-24T06:13:53.417Z,62.90
2019-03-24T06:16:24.150Z,62.50
2019-03-24T06:18:54.886Z,66.20
2019-03-24T06:21:25.747Z,63.70
2019-03-24T06:23:56.555Z,62.90
2019-03-24T06:26:27.296Z,71.20
2019-03-24T06:28:58.110Z,67.00
2019-03-24T06:31:28.858Z,63.30
2019-03-24T06:33:59.589Z,63.30
2019-03-24T06:36:30.391Z,65.50
2019-03-24T06:39:01.060Z,66.00
2019-03-24T06:41:31.772Z,63.40
2019-03-24T06:44:02.624Z,62.90
2019-03-24T06:46:33.351Z,63.10
2019-03-24T06:49:04.096Z,63.50
2019-03-24T06:51:34.793Z,63.00
2019-03-24T06:54:05.460Z,70.40
2019-03-24T06:56:36.206Z,63.00
2019-03-24T06:59:06.960Z,65.20
2019-03-24T07:01:37.648Z,68.60
2019-03-24T07:04:08.448Z,65.00
2019-03-24T07:06:39.218Z,75.70
2019-03-24T07:09:09.937Z,66.10
2019-03-24T07:11:40.726Z,65.70
2019-03-24T07:14:11.441Z,71.40
2019-03-24T07:16:42.295Z,71.40
2019-03-24T07:19:13.126Z,68.00
2019-03-24T07:21:43.937Z,68.40
2019-03-24T07:24:14.720Z,69.50
2019-03-24T07:26:45.577Z,69.10
2019-03-24T07:29:16.346Z,69.50
2019-03-24T07:31:48.000Z,69.50
2019-03-24T07:34:18.772Z,69.00
2019-03-24T07:36:49.457Z,70.60
2019-03-24T07:39:20.251Z,71.50
2019-03-24T07:41:51.040Z,69.30
2019-03-24T07:44:21.877Z,68.60
2019-03-24T07:46:52.604Z,69.40
2019-03-24T07:49:23.348Z,69.20
2019-03-24T07:51:54.203Z,69.90
2019-03-24T07:54:25.087Z,68.90
2019-03-24T07:56:55.884Z,68.70
2019-03-24T07:59:26.711Z,83.20
2019-03-24T08:01:57.398Z,81.30
2019-03-24T08:04:28.120Z,73.90
2019-03-24T08:06:59.001Z,72.10
2019-03-24T08:09:29.802Z,69.40
2019-03-24T08:12:00.740Z,70.90
2019-03-24T08:14:31.649Z,70.10
2019-03-24T08:17:02.447Z,72.10
2019-03-24T08:19:33.316Z,71.00
2019-03-24T08:22:04.035Z,75.70
2019-03-24T08:24:34.772Z,72.90
2019-03-24T08:27:05.630Z,75.60
2019-03-24T08:29:36.584Z,73.10
2019-03-24T08:32:07.337Z,75.30
2019-03-24T08:34:38.048Z,77.00
2019-03-24T08:37:08.784Z,72.00
2019-03-24T08:39:39.642Z,75.30
2019-03-24T08:42:10.332Z,79.50
2019-03-24T08:44:41.130Z,73.00
2019-03-24T08:47:11.880Z,73.70
2019-03-24T08:49:42.680Z,74.60
2019-03-24T08:52:13.593Z,73.80
2019-03-24T08:54:44.397Z,73.80
2019-03-24T08:57:15.399Z,76.40
2019-03-24T08:59:46.060Z,77.10
2019-03-24T09:02:16.876Z,77.90
2019-03-24T09:04:47.743Z,74.60
2019-03-24T09:07:18.597Z,78.90
2019-03-24T09:09:49.383Z,75.70
2019-03-24T09:12:20.279Z,74.30
2019-03-24T09:14:51.021Z,78.40
2019-03-24T09:17:21.850Z,74.70
2019-03-24T09:19:52.573Z,73.00
2019-03-24T09:22:23.354Z,75.60
2019-03-24T09:24:54.181Z,73.40
2019-03-24T09:27:24.971Z,73.40
2019-03-24T09:29:55.848Z,74.00
2019-03-24T09:32:26.835Z,73.30
2019-03-24T09:34:57.711Z,72.70
2019-03-24T09:37:28.419Z,74.10
2019-03-24T09:39:59.183Z,73.90
2019-03-24T09:42:29.970Z,73.20
2019-03-24T09:45:00.901Z,74.10
2019-03-24T09:47:31.706Z,75.40
2019-03-24T09:50:02.496Z,73.20
2019-03-24T09:52:33.351Z,73.40
2019-03-24T09:55:04.121Z,72.60
2019-03-24T09:57:34.975Z,73.10
2019-03-24T10:00:06.356Z,73.10
2019-03-24T10:02:37.129Z,74.00
2019-03-24T10:05:08.032Z,75.40
2019-03-24T10:07:38.880Z,73.80
2019-03-24T10:10:09.999Z,73.90
2019-03-24T10:12:40.725Z,73.10
2019-03-24T10:15:11.601Z,72.90
2019-03-24T10:17:42.509Z,72.90
2019-03-24T10:20:13.777Z,73.10
2019-03-24T10:22:44.614Z,73.30
2019-03-24T10:25:15.301Z,73.30
2019-03-24T10:27:46.093Z,73.50
2019-03-24T10:30:17.379Z,73.00
2019-03-24T10:32:48.194Z,73.20
2019-03-24T10:35:19.040Z,73.10
2019-03-24T10:37:49.797Z,74.30
2019-03-24T10:40:28.643Z,73.60
2019-03-24T10:42:53.038Z,73.20
2019-03-24T10:45:23.850Z,73.00
2019-03-24T10:47:54.652Z,72.80
2019-03-24T10:50:25.460Z,72.30
2019-03-24T10:52:56.240Z,72.20
2019-03-24T10:55:27.088Z,72.10
2019-03-24T10:57:57.953Z,72.30
2019-03-24T11:00:47.566Z,71.30
2019-03-24T11:03:18.483Z,71.70
2019-03-24T11:05:49.170Z,72.00
2019-03-24T11:08:19.991Z,73.00
2019-03-24T11:10:50.851Z,71.70
2019-03-24T11:13:21.673Z,71.10
2019-03-24T11:15:52.337Z,72.30
2019-03-24T11:18:23.145Z,70.50
2019-03-24T11:20:53.913Z,71.80
2019-03-24T11:23:24.775Z,71.40
2019-03-24T11:25:55.602Z,71.30
2019-03-24T11:28:26.417Z,69.90
2019-03-24T11:30:57.122Z,70.20
2019-03-24T11:33:29.605Z,71.40
2019-03-24T11:36:00.619Z,70.20
2019-03-24T11:38:31.363Z,68.40
2019-03-24T11:41:02.239Z,70.20
2019-03-24T11:43:33.000Z,70.00
2019-03-24T11:46:03.799Z,64.90
2019-03-24T11:48:34.474Z,69.50
2019-03-24T11:51:05.282Z,70.10
2019-03-24T11:53:36.039Z,67.30
2019-03-24T11:56:06.941Z,68.70
2019-03-24T11:58:37.716Z,70.00
2019-03-24T12:01:08.650Z,69.30
2019-03-24T12:03:39.389Z,71.10
2019-03-24T12:06:14.819Z,65.70
2019-03-24T12:08:42.767Z,68.30
2019-03-24T12:11:13.504Z,69.30
2019-03-24T12:13:44.230Z,69.20
2019-03-24T12:16:15.087Z,69.00
2019-03-24T12:18:46.034Z,68.70
2019-03-24T12:21:16.957Z,67.50
2019-03-24T12:23:47.821Z,67.50
2019-03-24T12:26:18.654Z,65.00
2019-03-24T12:28:49.579Z,65.60
2019-03-24T12:31:20.284Z,64.60
2019-03-24T12:33:51.087Z,66.60
2019-03-24T12:36:21.781Z,66.10
2019-03-24T12:38:52.588Z,63.20
2019-03-24T12:41:23.441Z,67.70
2019-03-24T12:43:54.225Z,67.00
2019-03-24T12:46:24.973Z,65.30
2019-03-24T12:48:55.715Z,66.00
2019-03-24T12:51:26.596Z,62.80
2019-03-24T12:53:57.438Z,65.20
2019-03-24T12:56:28.269Z,62.60
2019-03-24T12:58:59.017Z,61.90
2019-03-24T13:01:29.965Z,63.40
2019-03-24T13:04:00.886Z,61.80
2019-03-24T13:06:31.800Z,62.10
2019-03-24T13:09:02.640Z,66.70
2019-03-24T13:11:33.381Z,65.10
2019-03-24T13:14:04.266Z,65.80
2019-03-24T13:16:34.932Z,62.40
2019-03-24T13:19:05.779Z,62.30
2019-03-24T13:21:36.508Z,63.70
2019-03-24T13:24:07.352Z,62.70
2019-03-24T13:26:38.133Z,61.50
2019-03-24T13:29:08.840Z,61.30
2019-03-24T13:31:39.608Z,58.70
2019-03-24T13:34:10.416Z,57.10
2019-03-24T13:36:41.221Z,61.20
2019-03-24T13:39:12.075Z,59.70
2019-03-24T13:41:42.854Z,60.40
2019-03-24T13:44:13.590Z,58.10
2019-03-24T13:46:44.456Z,60.90
2019-03-24T13:49:15.258Z,60.10
2019-03-24T13:51:46.030Z,58.30
2019-03-24T13:54:16.841Z,59.00
2019-03-24T13:56:47.640Z,60.40
2019-03-24T13:59:18.467Z,58.50
2019-03-24T14:01:49.329Z,59.20
2019-03-24T14:04:20.139Z,58.90
2019-03-24T14:06:50.954Z,59.30
2019-03-24T14:09:21.791Z,58.80
2019-03-24T14:11:52.735Z,59.10
2019-03-24T14:14:23.547Z,58.60
2019-03-24T14:16:54.347Z,59.50
2019-03-24T14:19:25.172Z,59.70
2019-03-24T14:21:55.991Z,59.70
2019-03-24T14:24:26.878Z,59.20
2019-03-24T14:26:57.673Z,58.90
2019-03-24T14:29:28.498Z,58.90
2019-03-24T14:31:59.278Z,59.70
2019-03-24T14:34:30.134Z,59.60
2019-03-24T14:37:00.848Z,59.10
2019-03-24T14:39:31.808Z,58.50
2019-03-24T14:42:02.535Z,59.10
2019-03-24T14:44:33.310Z,58.90
2019-03-24T14:47:04.130Z,58.70
2019-03-24T14:49:34.871Z,58.80
2019-03-24T14:52:05.726Z,58.50
2019-03-24T14:54:36.536Z,58.90
2019-03-24T14:57:07.335Z,58.80
2019-03-24T14:59:38.142Z,59.10
2019-03-24T15:02:08.809Z,59.00
2019-03-24T15:04:39.591Z,59.20
2019-03-24T15:07:10.451Z,59.10
2019-03-24T15:09:41.299Z,59.20
2019-03-24T15:12:12.041Z,59.30
2019-03-24T15:14:42.763Z,59.10
2019-03-24T15:17:13.619Z,59.20
2019-03-24T15:19:44.381Z,59.40
2019-03-24T15:22:15.241Z,59.40
2019-03-24T15:24:45.921Z,59.00
2019-03-24T15:27:16.725Z,59.00
2019-03-24T15:29:47.640Z,59.00
2019-03-24T15:32:18.359Z,59.10
2019-03-24T15:34:49.267Z,59.60
2019-03-24T15:37:20.141Z,59.20
2019-03-24T15:39:50.966Z,59.20
2019-03-24T15:42:21.798Z,60.20
2019-03-24T15:44:52.566Z,60.60
2019-03-24T15:47:23.388Z,60.80
2019-03-24T15:49:54.162Z,60.30
2019-03-24T15:52:24.919Z,59.90
2019-03-24T15:54:55.774Z,61.00
2019-03-24T15:57:26.674Z,60.20
2019-03-24T15:59:57.436Z,61.00
2019-03-24T16:02:28.152Z,62.10
2019-03-24T16:04:58.970Z,61.90
2019-03-24T16:07:29.763Z,61.00
2019-03-24T16:10:00.508Z,63.00
2019-03-24T16:12:31.329Z,62.00
2019-03-24T16:15:02.158Z,61.90
2019-03-24T16:17:32.994Z,61.10
2019-03-24T16:20:03.858Z,61.00
2019-03-24T16:22:34.701Z,61.90
2019-03-24T16:25:05.812Z,63.20
2019-03-24T16:27:36.606Z,61.20
2019-03-24T16:30:08.364Z,60.90
2019-03-24T16:32:39.199Z,60.90
2019-03-24T16:35:10.073Z,61.30
2019-03-24T16:37:40.911Z,60.90
2019-03-24T16:40:11.759Z,60.10
2019-03-24T16:42:42.465Z,60.70
2019-03-24T16:45:13.982Z,60.60
2019-03-24T16:47:44.730Z,61.00
2019-03-24T16:50:15.666Z,61.20
2019-03-24T16:52:46.484Z,60.10
2019-03-24T16:55:17.282Z,61.10
2019-03-24T16:57:49.846Z,60.00
2019-03-24T17:00:20.591Z,61.30
2019-03-24T17:02:51.394Z,60.30
2019-03-24T17:05:22.184Z,60.20
2019-03-24T17:07:53.063Z,60.30
2019-03-24T17:10:23.773Z,60.80
2019-03-24T17:12:54.581Z,60.50
2019-03-24T17:15:25.353Z,59.70
2019-03-24T17:17:56.078Z,60.10
2019-03-24T17:20:26.809Z,59.90
2019-03-24T17:22:57.672Z,60.20
2019-03-24T17:25:28.511Z,59.80
2019-03-24T17:27:59.262Z,60.10
2019-03-24T17:30:30.204Z,61.10
2019-03-24T17:33:01.184Z,59.90
2019-03-24T17:35:32.071Z,59.70
2019-03-24T17:38:02.770Z,60.00
2019-03-24T17:40:38.804Z,59.60
2019-03-24T17:43:06.257Z,59.90
2019-03-24T17:45:37.222Z,59.30
2019-03-24T17:48:07.968Z,59.30
2019-03-24T17:50:38.776Z,59.30
2019-03-24T17:53:09.530Z,59.70
2019-03-24T17:55:40.355Z,59.70
2019-03-24T17:58:11.177Z,59.90
2019-03-24T18:00:45.392Z,60.20
2019-03-24T18:03:16.079Z,62.50
2019-03-24T18:05:46.864Z,61.20
2019-03-24T18:08:17.689Z,60.10
2019-03-24T18:10:48.451Z,60.30
2019-03-24T18:13:19.214Z,61.20
2019-03-24T18:15:50.042Z,61.40
2019-03-24T18:18:20.795Z,60.60
2019-03-24T18:20:51.619Z,61.20
2019-03-24T18:23:22.336Z,61.30
2019-03-24T18:25:53.058Z,63.00
2019-03-24T18:28:24.014Z,61.90
2019-03-24T18:30:54.727Z,60.90
2019-03-24T18:33:25.604Z,62.00
2019-03-24T18:35:56.326Z,62.90
2019-03-24T18:38:27.119Z,61.30
2019-03-24T18:40:57.934Z,61.80
2019-03-24T18:43:28.795Z,61.50
2019-03-24T18:45:59.524Z,63.20
2019-03-24T18:48:30.323Z,62.80
2019-03-24T18:51:01.210Z,61.50
2019-03-24T18:53:32.125Z,61.00
2019-03-24T18:56:02.972Z,63.90
2019-03-24T18:58:33.692Z,60.70
2019-03-24T19:01:04.548Z,62.30
2019-03-24T19:03:35.417Z,63.20
2019-03-24T19:06:06.195Z,61.00
2019-03-24T19:08:36.959Z,61.50
2019-03-24T19:11:07.756Z,62.10
2019-03-24T19:13:38.616Z,61.60
2019-03-24T19:16:09.461Z,61.00
2019-03-24T19:18:40.435Z,66.10
2019-03-24T19:21:11.172Z,62.10
2019-03-24T19:23:42.062Z,63.50
2019-03-24T19:26:12.944Z,61.60
2019-03-24T19:28:43.825Z,62.10
2019-03-24T19:31:14.662Z,63.10
2019-03-24T19:33:45.556Z,62.10
2019-03-24T19:36:16.457Z,61.50
2019-03-24T19:38:47.405Z,63.40
2019-03-24T19:41:18.289Z,61.50
2019-03-24T19:43:49.169Z,62.40
2019-03-24T19:46:20.104Z,62.50
2019-03-24T19:48:50.854Z,62.30
2019-03-24T19:51:21.864Z,61.60
2019-03-24T19:53:52.635Z,61.90
2019-03-24T19:56:23.463Z,63.40
2019-03-24T19:58:54.332Z,62.90
2019-03-24T20:01:25.162Z,62.70
2019-03-24T20:03:55.928Z,62.50
2019-03-24T20:06:26.612Z,63.30
2019-03-24T20:08:57.448Z,64.90
2019-03-24T20:11:28.330Z,61.80
2019-03-24T20:13:59.244Z,61.90
2019-03-24T20:16:30.074Z,62.30
2019-03-24T20:19:00.903Z,62.30
2019-03-24T20:21:31.675Z,60.90
2019-03-24T20:24:02.459Z,61.60
2019-03-24T20:26:33.216Z,61.50
2019-03-24T20:29:04.146Z,61.20
2019-03-24T20:31:34.916Z,61.10
2019-03-24T20:34:05.724Z,61.50
2019-03-24T20:36:36.538Z,61.60
2019-03-24T20:39:09.398Z,60.80
2019-03-24T20:41:40.232Z,60.70
2019-03-24T20:44:11.519Z,61.10
2019-03-24T20:46:42.319Z,61.40
2019-03-24T20:49:13.280Z,60.90
2019-03-24T20:51:44.112Z,62.10
2019-03-24T20:54:14.927Z,61.00
2019-03-24T20:56:45.615Z,61.10
2019-03-24T20:59:16.526Z,60.90
2019-03-24T21:01:47.405Z,61.20
2019-03-24T21:04:20.206Z,60.90
2019-03-24T21:06:50.789Z,61.30
2019-03-24T21:09:21.564Z,60.90
2019-03-24T21:11:52.315Z,60.70
2019-03-24T21:14:23.143Z,60.80
2019-03-24T21:16:53.954Z,60.30
2019-03-24T21:19:24.669Z,60.80
2019-03-24T21:21:55.416Z,60.70
2019-03-24T21:24:26.305Z,60.50
2019-03-24T21:26:57.180Z,60.40
2019-03-24T21:29:28.064Z,60.60
2019-03-24T21:31:58.877Z,60.90
2019-03-24T21:34:29.700Z,61.70
2019-03-24T21:37:00.478Z,60.70
2019-03-24T21:39:31.344Z,60.70
2019-03-24T21:42:02.181Z,60.90
2019-03-24T21:44:33.012Z,61.40
2019-03-24T21:47:22.804Z,61.10
2019-03-24T21:49:53.628Z,61.10
2019-03-24T21:52:24.460Z,60.90
2019-03-24T21:54:55.291Z,61.40
2019-03-24T21:57:25.932Z,61.60
2019-03-24T21:59:56.618Z,61.00
2019-03-24T22:02:27.494Z,61.60
2019-03-24T22:04:58.198Z,61.10
2019-03-24T22:07:29.079Z,60.90
2019-03-24T22:09:59.853Z,62.00
2019-03-24T22:12:30.680Z,61.00
2019-03-24T22:15:01.378Z,61.00
2019-03-24T22:17:32.255Z,60.60
2019-03-24T22:20:03.318Z,61.50
2019-03-24T22:22:34.155Z,61.00
2019-03-24T22:25:05.073Z,61.10
2019-03-24T22:27:35.995Z,60.90
2019-03-24T22:30:07.169Z,62.00
2019-03-24T22:32:38.367Z,62.50
2019-03-24T22:35:09.091Z,61.40
2019-03-24T22:37:39.829Z,60.90
2019-03-24T22:40:11.580Z,61.70
2019-03-24T22:42:42.443Z,69.50
2019-03-24T22:45:13.338Z,61.80
2019-03-24T22:47:44.132Z,62.60
2019-03-24T22:50:15.124Z,68.20
2019-03-24T22:52:46.383Z,62.20
2019-03-24T22:55:17.155Z,63.30
2019-03-24T22:57:48.038Z,62.70
2019-03-24T23:00:23.410Z,66.10
2019-03-24T23:02:54.256Z,64.70
2019-03-24T23:05:25.035Z,64.20
2019-03-24T23:07:55.940Z,63.10
2019-03-24T23:10:26.694Z,64.50
2019-03-24T23:12:57.531Z,65.50
2019-03-24T23:15:28.403Z,74.00
2019-03-24T23:17:59.273Z,68.70
2019-03-24T23:20:30.149Z,67.00
2019-03-24T23:23:00.979Z,70.90
2019-03-24T23:25:31.832Z,66.90
2019-03-24T23:28:02.615Z,66.80
2019-03-24T23:30:33.324Z,65.40
2019-03-24T23:33:04.207Z,68.90
2019-03-24T23:35:35.074Z,68.80
2019-03-24T23:38:05.921Z,71.00
2019-03-24T23:40:36.809Z,71.80
2019-03-24T23:43:07.853Z,73.30
2019-03-24T23:45:38.667Z,70.30
2019-03-24T23:48:09.418Z,72.80
2019-03-24T23:50:40.257Z,72.90
2019-03-24T23:53:11.049Z,72.30
2019-03-24T23:55:41.863Z,70.30
2019-03-24T23:58:12.715Z,71.80
